Capitol Logistics 947


KIAD
Washington Dulles International Airport
Dulles, Virginia, US
EHAM
Schiphol International Airport
Amsterdam, , NL

Route Details

Aircraft Information
Primary: Boeing 767-300BDSF
Backup: Not Available
Route Data
Distance: 3355nm
Sched. Duration: 7h 48m
Avg. Duration: 7h 33m (-14m)
Times Flown: 8
Recm'd Route: JCOBY3 SWANN BROSS J42 RBV LLUND BAYYS PUT WITCH ALLEX N263A JOOPY NATR BEXET DEVOL RINUS LIFFY UL975 WAL M16 DOLAS L603 LAMSO
Planned Altitude: 31,000ft
Origin Wx: KIAD 290252Z 16006KT 10SM BKN016 BKN024 OVC040 24/22 A3002 RMK AO2 SLP163 T02390217 53010
Dest. Wx: EHAM 290255Z 08012KT CAVOK 09/05 Q1031 NOSIG
Notes: SEASONAL FLIGHT

Financial History
Total Freight: 277,970lbs
Average Load: 34,746lbs/flt
Fuel Used: 495,509lbs
Avg. Fuel Used: 61,939lbs/flt
Fuel Expense: $643,571
Avg. Fuel Expense: $80,446
Avg. Fuel Cost: $1.30/lbs
Total Gross Income: $671,266
Pilot Pay: $1,932
Total Expenses: $72,913
Total Revenue: $-61,172
Average Revenue: $83,908.24